Time;durP1;ratioP1;P1;durP2;ratioP2;P2;SDS_P1;SDS_P2;PMS_P1;PMS_P2;Temp;Humidity;BMP_temperature;BMP_pressure;BME280_temperature;BME280_humidity;BME280_pressure;Samples;Min_cycle;Max_cycle;Signal;HPM_P1;HPM_P2
2021/12/17 00:03:07;;;;;;;;;;;;;;;6.88;92.57;102718.03;5056937;28;19924;-85
2021/12/17 00:05:01;;;;;;;;;;;;;;;6.90;92.63;102724.91;5056788;28;19920;-85
2021/12/17 00:07:28;;;;;;;;;;;;;;;6.92;92.81;102730.09;5058982;28;19921;-85
2021/12/17 00:09:55;;;;;;;;;;;;;;;6.94;92.83;102725.63;5061057;28;20023;-84
2021/12/17 00:12:21;;;;;;;;;;;;;;;6.96;92.30;102727.25;5061488;28;20012;-84
2021/12/17 00:14:48;;;;;;;;;;;;;;;6.91;92.62;102718.75;5063789;28;20435;-85
2021/12/17 00:17:14;;;;;;;;;;;;;;;6.92;93.04;102720.44;5059506;28;19944;-85
2021/12/17 00:49:51;;;;;;;;;;;;;;;6.96;93.33;102700.06;5054607;28;20317;-85
2021/12/17 00:52:17;;;;;;;;;;;;;;;7.07;92.32;102708.31;5053430;28;19921;-82
2021/12/17 00:54:42;;;;;;;;;;;;;;;6.99;92.91;102703.44;5051651;28;19925;-85
2021/12/17 00:57:11;;;;;;;;;;;;;;;7.05;92.38;102712.78;5064833;28;19928;-84
2021/12/17 00:59:37;;;;;;;;;;;;;;;7.00;92.49;102705.13;5057525;28;19924;-84
2021/12/17 01:02:04;;;;;;;;;;;;;;;6.98;92.75;102703.50;5071777;28;19920;-84
2021/12/17 01:04:30;;;;;;;;;;;;;;;6.95;92.62;102714.16;5052092;28;20275;-84
2021/12/17 01:06:55;;;;;;;;;;;;;;;6.93;92.93;102705.50;5068459;28;20293;-84
2021/12/17 01:09:22;;;;;;;;;;;;;;;6.93;92.82;102708.97;5064730;28;20124;-84
2021/12/17 01:11:48;;;;;;;;;;;;;;;6.93;92.90;102708.97;5064652;28;19924;-84
2021/12/17 01:14:13;;;;;;;;;;;;;;;6.93;93.01;102703.72;5066313;28;19928;-84
2021/12/17 01:16:39;;;;;;;;;;;;;;;6.92;93.17;102707.28;5059945;28;19920;-84
2021/12/17 01:19:24;;;;;;;;;;;;;;;6.97;92.80;102702.66;5071859;28;20267;-84
2021/12/17 01:35:28;;;;;;;;;;;;;;;7.08;93.06;102706.53;5061004;28;19932;-84
2021/12/17 01:42:54;;;;;;;;;;;;;;;7.02;93.04;102711.16;5066971;28;19930;-85
2021/12/17 01:45:23;;;;;;;;;;;;;;;7.02;93.39;102698.00;5044490;28;20019;-84
2021/12/17 01:47:48;;;;;;;;;;;;;;;6.96;93.65;102700.06;5075387;28;19958;-84
2021/12/17 01:55:51;;;;;;;;;;;;;;;7.09;92.92;102702.97;5072019;28;19970;-85
2021/12/17 02:01:01;;;;;;;;;;;;;;;7.15;92.24;102710.56;5075200;28;19924;-84
2021/12/17 02:03:26;;;;;;;;;;;;;;;7.14;92.49;102714.97;5066023;28;19921;-84
2021/12/17 02:05:52;;;;;;;;;;;;;;;7.19;92.12;102707.69;5042477;28;19923;-84
2021/12/17 02:08:17;;;;;;;;;;;;;;;7.14;92.69;102703.59;5055720;28;19921;-84
2021/12/17 02:30:01;;;;;;;;;;;;;;;7.12;91.59;102693.13;5061520;28;20002;-85
2021/12/17 02:32:28;;;;;;;;;;;;;;;7.12;91.38;102690.50;5056953;28;19927;-84
2021/12/17 02:35:24;;;;;;;;;;;;;;;7.11;91.59;102694.09;5041702;28;19932;-84
2021/12/17 02:37:51;;;;;;;;;;;;;;;7.11;91.24;102691.44;5050805;28;20317;-84
2021/12/17 02:45:32;;;;;;;;;;;;;;;7.12;91.69;102673.88;5057590;28;19978;-85
2021/12/17 02:48:08;;;;;;;;;;;;;;;7.17;91.63;102687.66;5055600;23;19924;-75
2021/12/17 02:50:43;;;;;;;;;;;;;;;7.18;91.81;102686.75;5068359;28;19928;-75
2021/12/17 02:53:09;;;;;;;;;;;;;;;7.20;91.75;102684.88;5056475;28;20445;-75
2021/12/17 02:55:36;;;;;;;;;;;;;;;7.21;91.36;102684.78;5050200;28;19929;-75
2021/12/17 02:58:02;;;;;;;;;;;;;;;7.18;90.55;102684.13;5048590;28;19921;-75
2021/12/17 03:00:28;;;;;;;;;;;;;;;7.14;90.46;102682.56;5043511;28;19921;-75
2021/12/17 03:02:54;;;;;;;;;;;;;;;7.16;91.10;102684.19;5046809;28;19936;-75
2021/12/17 03:05:19;;;;;;;;;;;;;;;7.13;90.67;102679.06;5038235;28;19921;-75
2021/12/17 03:07:47;;;;;;;;;;;;;;;7.16;90.65;102680.69;5036132;28;19932;-75
2021/12/17 03:10:14;;;;;;;;;;;;;;;7.18;91.08;102692.84;5054961;28;19920;-75
2021/12/17 03:12:50;;;;;;;;;;;;;;;7.20;90.85;102693.63;5042458;28;19921;-75
2021/12/17 03:26:12;;;;;;;;;;;;;;;7.16;90.84;102686.81;5054976;28;19928;-75
2021/12/17 03:28:38;;;;;;;;;;;;;;;7.19;90.25;102697.16;5060211;28;20062;-75
2021/12/17 03:31:04;;;;;;;;;;;;;;;7.22;90.41;102685.63;5041338;28;19929;-75
2021/12/17 03:33:29;;;;;;;;;;;;;;;7.18;89.30;102684.13;5035866;28;20305;-75
2021/12/17 03:35:55;;;;;;;;;;;;;;;7.20;90.30;102687.53;5044029;28;19924;-75
2021/12/17 03:38:20;;;;;;;;;;;;;;;7.21;90.19;102692.69;5034735;28;19975;-75
2021/12/17 03:40:46;;;;;;;;;;;;;;;7.16;88.56;102689.44;5057765;28;19995;-75
2021/12/17 03:43:14;;;;;;;;;;;;;;;7.18;89.73;102697.28;5052256;28;19931;-75
2021/12/17 03:45:40;;;;;;;;;;;;;;;7.18;88.75;102697.28;5059460;28;19995;-75
2021/12/17 03:48:06;;;;;;;;;;;;;;;7.21;89.81;102692.69;5067676;28;19927;-75
2021/12/17 03:50:36;;;;;;;;;;;;;;;7.20;89.14;102698.03;5066065;28;19921;-75
2021/12/17 03:53:01;;;;;;;;;;;;;;;7.20;89.69;102693.63;5062069;28;19921;-75
2021/12/17 03:55:27;;;;;;;;;;;;;;;7.22;89.71;102701.44;5042055;28;19925;-75
2021/12/17 03:57:52;;;;;;;;;;;;;;;7.22;89.63;102696.16;5062469;28;20358;-75
2021/12/17 04:00:17;;;;;;;;;;;;;;;7.19;88.85;102701.59;5058671;28;20340;-75
2021/12/17 04:02:43;;;;;;;;;;;;;;;7.18;89.46;102699.91;5060418;28;19928;-75
2021/12/17 04:05:08;;;;;;;;;;;;;;;7.19;89.65;102705.06;5056994;28;19951;-75
2021/12/17 04:07:34;;;;;;;;;;;;;;;7.19;89.11;102698.97;5036172;28;19928;-75
2021/12/17 04:09:59;;;;;;;;;;;;;;;7.19;89.57;102698.97;5049667;28;19924;-75
2021/12/17 04:12:38;;;;;;;;;;;;;;;7.19;89.42;102691.91;5062538;28;19920;-75
2021/12/17 04:15:04;;;;;;;;;;;;;;;7.20;89.58;102688.38;5061656;28;20134;-75
2021/12/17 04:17:38;;;;;;;;;;;;;;;7.19;89.37;102694.53;5062033;28;20016;-75
2021/12/17 04:20:03;;;;;;;;;;;;;;;7.20;89.41;102691.00;5066447;28;19928;-75
2021/12/17 04:22:29;;;;;;;;;;;;;;;7.14;89.10;102680.78;5046127;28;20281;-75
2021/12/17 04:24:54;;;;;;;;;;;;;;;7.12;89.24;102674.72;5071478;28;19921;-75
2021/12/17 04:27:19;;;;;;;;;;;;;;;6.99;88.42;102666.59;5057053;28;20357;-75
2021/12/17 04:29:44;;;;;;;;;;;;;;;6.91;89.22;102666.13;5064171;28;19928;-76
2021/12/17 04:32:10;;;;;;;;;;;;;;;6.79;88.98;102653.56;5058309;28;19927;-75
2021/12/17 04:34:36;;;;;;;;;;;;;;;6.63;90.10;102647.38;5059719;28;20347;-75
2021/12/17 04:37:01;;;;;;;;;;;;;;;6.50;90.09;102645.31;5056703;28;19931;-75
2021/12/17 04:39:27;;;;;;;;;;;;;;;6.49;90.53;102638.38;5052455;28;19920;-75
2021/12/17 04:44:23;;;;;;;;;;;;;;;6.44;90.19;102645.63;5062752;28;19924;-75
2021/12/17 04:47:03;;;;;;;;;;;;;;;6.34;89.97;102639.94;5059448;28;19923;-75
2021/12/17 04:57:41;;;;;;;;;;;;;;;5.91;90.54;102620.91;5054592;28;19924;-75
2021/12/17 05:00:16;;;;;;;;;;;;;;;5.86;90.35;102619.38;5046586;28;19921;-76
2021/12/17 05:02:45;;;;;;;;;;;;;;;5.82;90.33;102625.72;5062836;28;19928;-75
2021/12/17 05:05:11;;;;;;;;;;;;;;;5.80;90.15;102625.78;5051825;28;19928;-75
2021/12/17 05:07:41;;;;;;;;;;;;;;;5.65;90.74;102615.94;5064319;28;19924;-75
2021/12/17 05:10:26;;;;;;;;;;;;;;;5.62;90.94;102613.47;5060908;28;20370;-75
2021/12/17 05:18:25;;;;;;;;;;;;;;;5.30;91.17;102626.22;5065847;28;20094;-75
2021/12/17 05:20:57;;;;;;;;;;;;;;;5.20;91.56;102633.63;5044135;28;20377;-75
2021/12/17 05:23:30;;;;;;;;;;;;;;;5.13;91.59;102637.44;5060795;28;19921;-75
2021/12/17 05:25:56;;;;;;;;;;;;;;;5.07;91.87;102629.81;5065464;28;19924;-75
2021/12/17 05:28:21;;;;;;;;;;;;;;;5.00;91.94;102629.22;5038258;28;19928;-75
2021/12/17 05:30:48;;;;;;;;;;;;;;;4.95;92.39;102630.34;5055224;28;19925;-75
2021/12/17 05:33:14;;;;;;;;;;;;;;;4.88;92.25;102629.72;5063733;28;19921;-75
2021/12/17 05:35:40;;;;;;;;;;;;;;;4.83;92.55;102631.69;5059184;28;19925;-75
2021/12/17 05:38:05;;;;;;;;;;;;;;;4.74;92.75;102632.91;5051557;28;19921;-75
2021/12/17 05:40:30;;;;;;;;;;;;;;;4.70;92.62;102635.75;5062049;28;19921;-75
2021/12/17 05:42:59;;;;;;;;;;;;;;;4.65;92.61;102636.78;5059620;28;19920;-75
2021/12/17 05:45:35;;;;;;;;;;;;;;;4.59;93.17;102644.00;5036705;28;20023;-75
2021/12/17 05:48:03;;;;;;;;;;;;;;;4.54;94.10;102645.97;5055882;28;20274;-75
2021/12/17 05:50:28;;;;;;;;;;;;;;;4.54;94.26;102645.97;5051545;28;19920;-75
2021/12/17 05:52:54;;;;;;;;;;;;;;;4.62;93.54;102649.13;5052159;28;20382;-75
2021/12/17 05:55:19;;;;;;;;;;;;;;;4.68;92.75;102651.50;5048704;28;20023;-75
2021/12/17 05:57:44;;;;;;;;;;;;;;;4.71;92.98;102655.78;5051088;28;19975;-75
2021/12/17 06:00:11;;;;;;;;;;;;;;;4.74;92.63;102653.03;5051168;28;19974;-75
2021/12/17 06:02:36;;;;;;;;;;;;;;;4.75;92.77;102660.84;5048563;28;19939;-75
2021/12/17 06:05:01;;;;;;;;;;;;;;;4.75;92.40;102660.00;5050778;28;19921;-75
2021/12/17 06:07:27;;;;;;;;;;;;;;;4.77;92.68;102658.16;5048809;28;19928;-74
2021/12/17 06:09:53;;;;;;;;;;;;;;;4.78;92.60;102659.84;5035728;28;19920;-75
2021/12/17 06:12:18;;;;;;;;;;;;;;;4.72;92.80;102653.09;5049364;28;19921;-74
2021/12/17 06:14:43;;;;;;;;;;;;;;;4.71;92.75;102653.16;5029927;28;19975;-74
2021/12/17 06:17:08;;;;;;;;;;;;;;;4.71;92.25;102661.88;5051095;28;19921;-74
2021/12/17 06:19:33;;;;;;;;;;;;;;;4.73;92.26;102660.03;5049747;28;19920;-74
2021/12/17 06:21:59;;;;;;;;;;;;;;;4.73;92.49;102665.28;5049511;28;19940;-74
2021/12/17 06:24:24;;;;;;;;;;;;;;;4.69;92.40;102661.06;5031760;28;19960;-74
2021/12/17 06:26:49;;;;;;;;;;;;;;;4.66;92.30;102663.81;5045678;28;19966;-74
2021/12/17 06:29:16;;;;;;;;;;;;;;;4.65;92.66;102672.59;5050081;28;20072;-75
2021/12/17 06:31:41;;;;;;;;;;;;;;;4.64;92.72;102668.25;5050413;28;19987;-76
2021/12/17 06:34:07;;;;;;;;;;;;;;;4.60;92.68;102680.66;5057801;28;19953;-74
2021/12/17 06:36:32;;;;;;;;;;;;;;;4.67;92.26;102678.63;5047119;28;20385;-74
2021/12/17 06:38:57;;;;;;;;;;;;;;;4.64;92.23;102678.75;5044957;28;19928;-74
2021/12/17 06:41:22;;;;;;;;;;;;;;;4.54;92.58;102678.25;5034460;28;19921;-74
2021/12/17 06:43:47;;;;;;;;;;;;;;;4.49;92.23;102677.59;5049756;28;19921;-74
2021/12/17 06:48:38;;;;;;;;;;;;;;;4.39;92.27;102682.31;5043345;28;19964;-74
2021/12/17 06:59:55;;;;;;;;;;;;;;;4.24;92.62;102682.88;5064067;28;19973;-74
2021/12/17 07:08:38;;;;;;;;;;;;;;;4.18;92.70;102689.22;5056762;28;19928;-75
2021/12/17 07:21:30;;;;;;;;;;;;;;;4.11;92.46;102694.75;5048855;28;20081;-76
2021/12/17 07:30:41;;;;;;;;;;;;;;;4.10;92.72;102708.72;5060021;28;19979;-75
2021/12/17 07:35:13;;;;;;;;;;;;;;;4.06;92.75;102713.25;5053455;28;19928;-75
2021/12/17 07:40:09;;;;;;;;;;;;;;;4.07;92.29;102709.69;5063601;28;20031;-75
2021/12/17 07:42:34;;;;;;;;;;;;;;;4.00;92.87;102713.44;5063090;28;19921;-75
2021/12/17 07:45:00;;;;;;;;;;;;;;;4.02;92.38;102709.88;5066541;28;19974;-75
2021/12/17 07:47:25;;;;;;;;;;;;;;;4.03;92.71;102711.59;5065685;28;19967;-75
2021/12/17 07:49:51;;;;;;;;;;;;;;;4.03;92.59;102708.13;5066779;28;19923;-75
2021/12/17 07:52:16;;;;;;;;;;;;;;;3.99;92.70;102709.97;5057723;28;19925;-76
2021/12/17 07:54:41;;;;;;;;;;;;;;;4.02;92.68;102706.41;5053398;28;19929;-75
2021/12/17 07:57:06;;;;;;;;;;;;;;;4.02;92.70;102709.00;5058269;28;19998;-76
2021/12/17 07:59:32;;;;;;;;;;;;;;;4.02;92.67;102707.25;5050164;28;19924;-76
2021/12/17 08:01:57;;;;;;;;;;;;;;;4.06;92.80;102710.63;5027780;28;19925;-75
2021/12/17 08:04:23;;;;;;;;;;;;;;;4.10;92.08;102709.59;5034428;28;19929;-75
2021/12/17 08:06:48;;;;;;;;;;;;;;;4.13;92.32;102712.09;5042188;28;19923;-75
2021/12/17 08:09:13;;;;;;;;;;;;;;;4.14;92.16;102705.94;5031202;28;20394;-76
2021/12/17 08:11:39;;;;;;;;;;;;;;;4.19;92.21;102703.16;5051153;28;21076;-75
2021/12/17 08:14:10;;;;;;;;;;;;;;;4.19;92.17;102708.41;5053529;28;19943;-76
2021/12/17 08:16:46;;;;;;;;;;;;;;;4.20;92.18;102715.34;5056894;28;19925;-75
2021/12/17 08:32:00;;;;;;;;;;;;;;;4.45;90.93;102725.75;5054736;28;19931;-75
2021/12/17 08:34:25;;;;;;;;;;;;;;;4.43;91.02;102728.47;5063263;28;19977;-76
2021/12/17 08:36:50;;;;;;;;;;;;;;;4.52;91.04;102723.78;5053392;28;19928;-75
2021/12/17 08:39:16;;;;;;;;;;;;;;;4.57;91.33;102721.81;5038316;28;19927;-75
2021/12/17 08:41:41;;;;;;;;;;;;;;;4.68;90.32;102725.72;5049316;28;19921;-75
2021/12/17 08:44:07;;;;;;;;;;;;;;;4.68;90.60;102727.50;5051879;28;19948;-75
2021/12/17 08:46:33;;;;;;;;;;;;;;;4.72;90.79;102721.25;5051921;28;19932;-75
2021/12/17 08:48:58;;;;;;;;;;;;;;;4.82;90.72;102727.81;5046899;28;19921;-75
2021/12/17 08:51:24;;;;;;;;;;;;;;;4.84;90.67;102735.63;5044089;28;20373;-75
2021/12/17 08:53:49;;;;;;;;;;;;;;;4.84;89.88;102735.63;5046967;28;19939;-75
2021/12/17 08:56:18;;;;;;;;;;;;;;;4.70;90.59;102738.78;5043385;28;19924;-75
2021/12/17 08:58:44;;;;;;;;;;;;;;;4.87;90.28;102743.38;5044765;28;19925;-75
2021/12/17 09:01:09;;;;;;;;;;;;;;;4.88;89.70;102739.81;5045587;28;20428;-74
2021/12/17 09:03:34;;;;;;;;;;;;;;;4.96;89.53;102744.75;5037555;28;20126;-75
2021/12/17 09:06:00;;;;;;;;;;;;;;;4.92;89.84;102737.94;5045533;28;19952;-75
2021/12/17 09:08:26;;;;;;;;;;;;;;;4.96;89.60;102744.75;5037463;28;20292;-75
2021/12/17 09:10:55;;;;;;;;;;;;;;;4.83;89.88;102749.63;5043702;28;19944;-75
2021/12/17 09:13:21;;;;;;;;;;;;;;;4.93;89.40;102755.38;5047974;28;19928;-75
2021/12/17 09:15:46;;;;;;;;;;;;;;;4.96;89.52;102757.88;5036238;28;20442;-75
2021/12/17 09:18:11;;;;;;;;;;;;;;;4.85;89.54;102761.78;5043342;28;19929;-75
2021/12/17 09:20:37;;;;;;;;;;;;;;;4.87;89.84;102766.97;5039800;28;20356;-75
2021/12/17 09:23:02;;;;;;;;;;;;;;;4.95;89.60;102764.03;5042282;28;19921;-74
2021/12/17 09:25:29;;;;;;;;;;;;;;;4.91;89.76;102765.94;5045496;28;19921;-74
2021/12/17 09:27:54;;;;;;;;;;;;;;;5.10;89.43;102760.78;5047437;28;19952;-75
2021/12/17 09:30:19;;;;;;;;;;;;;;;5.18;89.14;102761.38;5041610;28;19925;-75
2021/12/17 09:32:44;;;;;;;;;;;;;;;5.30;89.40;102767.88;5030404;28;19921;-75
2021/12/17 09:35:10;;;;;;;;;;;;;;;5.33;89.44;102759.88;5043095;28;19933;-75
2021/12/17 09:37:36;;;;;;;;;;;;;;;5.48;88.48;102763.63;5038641;28;19930;-75
2021/12/17 09:40:06;;;;;;;;;;;;;;;5.46;88.46;102758.47;5046969;28;20298;-76
2021/12/17 09:42:31;;;;;;;;;;;;;;;5.55;88.51;102759.84;5047452;28;19925;-75
2021/12/17 09:44:56;;;;;;;;;;;;;;;5.64;88.32;102758.59;5039471;28;20315;-75
2021/12/17 09:47:21;;;;;;;;;;;;;;;5.65;88.04;102758.56;5035854;28;20344;-75
2021/12/17 09:49:47;;;;;;;;;;;;;;;5.64;88.16;102759.44;5050354;28;19923;-75
2021/12/17 09:52:12;;;;;;;;;;;;;;;5.71;87.62;102768.78;5034021;28;19924;-74
2021/12/17 09:54:37;;;;;;;;;;;;;;;5.72;88.50;102765.25;5050147;28;19927;-75
2021/12/17 09:57:03;;;;;;;;;;;;;;;5.72;87.96;102762.63;5050188;28;19921;-75
2021/12/17 09:59:28;;;;;;;;;;;;;;;5.85;88.17;102769.97;5049650;28;19964;-74
2021/12/17 10:01:53;;;;;;;;;;;;;;;5.99;88.00;102767.63;5047717;28;19959;-74
2021/12/17 10:04:18;;;;;;;;;;;;;;;6.02;87.10;102757.00;5037172;28;19964;-75
2021/12/17 10:06:44;;;;;;;;;;;;;;;6.04;87.49;102755.16;5046032;28;19917;-74
2021/12/17 10:09:09;;;;;;;;;;;;;;;6.07;88.35;102756.78;5043455;28;19928;-75
2021/12/17 10:11:35;;;;;;;;;;;;;;;6.10;88.29;102749.63;5043739;28;19925;-75
2021/12/17 10:14:15;;;;;;;;;;;;;;;6.10;88.08;102757.53;5039949;28;20000;-75
2021/12/17 10:16:40;;;;;;;;;;;;;;;6.11;88.47;102751.34;5062251;28;19929;-75
2021/12/17 10:19:05;;;;;;;;;;;;;;;6.25;88.79;102744.63;5050509;28;19920;-75
2021/12/17 10:21:30;;;;;;;;;;;;;;;6.29;88.68;102746.16;5031987;28;19931;-74
2021/12/17 10:23:56;;;;;;;;;;;;;;;6.31;88.23;102747.81;5048643;28;19940;-75
2021/12/17 10:26:22;;;;;;;;;;;;;;;6.40;88.92;102751.78;5034856;28;19956;-75
2021/12/17 10:28:58;;;;;;;;;;;;;;;6.49;88.56;102750.53;5047407;28;19921;-75
2021/12/17 10:31:24;;;;;;;;;;;;;;;6.55;88.32;102745.84;5046441;28;20274;-74
2021/12/17 10:33:51;;;;;;;;;;;;;;;6.65;88.41;102748.03;5044566;28;19921;-75
2021/12/17 10:36:16;;;;;;;;;;;;;;;6.68;87.18;102748.75;5035675;28;19925;-75
2021/12/17 10:38:45;;;;;;;;;;;;;;;6.81;88.07;102749.84;5029925;28;19936;-75
2021/12/17 10:41:14;;;;;;;;;;;;;;;6.90;87.83;102742.47;5042601;28;20374;-75
2021/12/17 10:43:46;;;;;;;;;;;;;;;7.14;85.54;102745.69;5043772;28;20024;-75
2021/12/17 10:51:15;;;;;;;;;;;;;;;7.20;82.72;102741.00;5042195;28;19920;-75
2021/12/17 10:53:44;;;;;;;;;;;;;;;7.32;82.07;102744.81;5046116;28;19924;-75
2021/12/17 10:56:14;;;;;;;;;;;;;;;7.22;81.56;102743.53;5040423;28;19962;-74
2021/12/17 10:58:51;;;;;;;;;;;;;;;7.35;81.68;102735.91;5044227;28;20501;-74
2021/12/17 11:01:16;;;;;;;;;;;;;;;7.42;81.57;102743.41;5043303;28;19920;-75
2021/12/17 11:03:41;;;;;;;;;;;;;;;7.32;79.89;102739.53;5046011;28;20393;-74
2021/12/17 11:06:06;;;;;;;;;;;;;;;7.50;80.07;102732.47;5041096;28;19929;-74
2021/12/17 11:08:34;;;;;;;;;;;;;;;7.48;79.31;102728.22;5041655;28;20448;-74
2021/12/17 11:11:08;;;;;;;;;;;;;;;7.86;77.67;102732.41;5029339;28;20543;-74
2021/12/17 11:13:34;;;;;;;;;;;;;;;7.85;77.96;102716.66;5043268;28;19986;-74
2021/12/17 11:15:59;;;;;;;;;;;;;;;7.89;78.27;102726.13;5044817;28;20385;-75
2021/12/17 11:18:26;;;;;;;;;;;;;;;7.99;77.64;102723.84;5026076;28;19928;-74
2021/12/17 11:20:53;;;;;;;;;;;;;;;8.04;76.96;102713.91;5026892;28;19966;-75
2021/12/17 11:23:18;;;;;;;;;;;;;;;8.21;75.22;102723.56;5044372;28;19921;-75
2021/12/17 11:25:45;;;;;;;;;;;;;;;8.19;75.39;102723.63;5042304;28;19947;-75
2021/12/17 11:28:11;;;;;;;;;;;;;;;8.17;75.04;102712.31;5032715;28;20326;-77
2021/12/17 11:30:38;;;;;;;;;;;;;;;8.17;75.45;102708.84;5040613;28;19925;-77
2021/12/17 11:33:04;;;;;;;;;;;;;;;7.97;76.15;102721.28;5028099;28;19924;-75
2021/12/17 11:35:30;;;;;;;;;;;;;;;7.92;76.84;102718.03;5039724;28;19954;-76
2021/12/17 11:37:58;;;;;;;;;;;;;;;8.06;75.93;102725.22;5042495;28;20206;-75
2021/12/17 11:40:31;;;;;;;;;;;;;;;8.22;76.48;102725.25;5041051;28;20003;-75
2021/12/17 11:43:04;;;;;;;;;;;;;;;8.20;74.49;102727.09;5042683;28;19928;-75
2021/12/17 11:45:29;;;;;;;;;;;;;;;8.32;75.35;102720.31;5043972;28;19928;-75
2021/12/17 11:48:30;;;;;;;;;;;;;;;8.27;74.62;102710.03;5046648;28;20301;-76
2021/12/17 11:51:15;;;;;;;;;;;;;;;8.25;74.42;102714.56;4957458;28;19953;-77
2021/12/17 11:53:42;;;;;;;;;;;;;;;8.05;74.53;102710.34;5025681;28;20051;-76
2021/12/17 11:56:07;;;;;;;;;;;;;;;8.10;74.32;102705.66;5035227;28;19935;-76
2021/12/17 11:58:42;;;;;;;;;;;;;;;8.03;74.58;102709.56;5045676;28;20482;-76
2021/12/17 12:01:07;;;;;;;;;;;;;;;8.24;74.02;102704.94;5039476;28;20378;-75
2021/12/17 12:03:32;;;;;;;;;;;;;;;8.10;73.46;102705.66;5027928;28;19928;-75
2021/12/17 12:05:59;;;;;;;;;;;;;;;8.13;73.35;102704.66;5050059;28;19916;-76
2021/12/17 12:08:28;;;;;;;;;;;;;;;8.07;73.50;102703.19;5034647;28;19978;-75
2021/12/17 12:11:02;;;;;;;;;;;;;;;7.94;74.19;102694.28;5044631;28;20194;-76
2021/12/17 12:13:35;;;;;;;;;;;;;;;7.93;74.40;102703.09;5046694;28;19970;-76
2021/12/17 12:16:01;;;;;;;;;;;;;;;7.98;74.33;102699.25;5031244;28;20296;-76
2021/12/17 12:18:37;;;;;;;;;;;;;;;7.97;73.57;102694.09;5041302;28;19921;-76
2021/12/17 12:21:02;;;;;;;;;;;;;;;7.96;73.99;102700.28;5040413;28;19977;-76
2021/12/17 12:23:28;;;;;;;;;;;;;;;7.82;74.09;102701.03;5049299;28;19924;-76
2021/12/17 12:26:02;;;;;;;;;;;;;;;7.80;74.06;102697.63;5049271;28;19932;-76
2021/12/17 12:28:40;;;;;;;;;;;;;;;7.74;74.66;102690.03;5036120;28;19964;-76
2021/12/17 12:31:05;;;;;;;;;;;;;;;7.76;74.11;102696.91;5042659;28;19928;-76
2021/12/17 12:33:31;;;;;;;;;;;;;;;7.77;74.46;102695.13;5041809;28;19921;-75
2021/12/17 12:35:57;;;;;;;;;;;;;;;7.70;74.32;102685.84;5048257;28;19926;-75
2021/12/17 12:38:26;;;;;;;;;;;;;;;7.80;74.69;102684.44;5051654;28;19921;-76
2021/12/17 12:40:55;;;;;;;;;;;;;;;7.84;74.40;102685.97;5050642;28;19959;-76
2021/12/17 12:43:25;;;;;;;;;;;;;;;7.90;74.45;102682.19;5042073;28;19921;-75
2021/12/17 12:45:50;;;;;;;;;;;;;;;7.92;74.14;102685.59;5044199;28;19923;-75
2021/12/17 12:48:29;;;;;;;;;;;;;;;7.86;74.77;102676.22;5041737;28;20365;-75
2021/12/17 12:51:13;;;;;;;;;;;;;;;7.87;74.43;102683.19;5030585;28;19933;-75
2021/12/17 12:53:43;;;;;;;;;;;;;;;7.85;74.05;102680.63;5038429;28;19921;-75
2021/12/17 12:56:15;;;;;;;;;;;;;;;7.69;74.49;102685.00;5028972;28;20012;-75
2021/12/17 12:58:46;;;;;;;;;;;;;;;7.71;74.29;102683.16;5044380;28;19947;-75
2021/12/17 13:01:13;;;;;;;;;;;;;;;7.70;74.29;102693.75;5051520;28;20334;-76
2021/12/17 13:03:39;;;;;;;;;;;;;;;7.84;74.19;102693.88;5035172;28;20069;-76
2021/12/17 13:06:05;;;;;;;;;;;;;;;7.88;73.99;102693.63;5040458;28;20004;-76
2021/12/17 13:08:31;;;;;;;;;;;;;;;7.94;74.37;102696.91;5047589;28;19920;-75
2021/12/17 13:10:59;;;;;;;;;;;;;;;8.01;73.35;102687.75;5038348;28;20435;-75
2021/12/17 13:21:20;;;;;;;;;;;;;;;7.85;73.85;102672.72;5047769;28;20002;-75
2021/12/17 13:23:49;;;;;;;;;;;;;;;7.75;74.28;102662.78;5051021;28;19993;-75
2021/12/17 13:26:16;;;;;;;;;;;;;;;7.61;74.35;102674.03;5050881;28;19921;-76
2021/12/17 13:28:49;;;;;;;;;;;;;;;7.59;74.85;102662.72;5050504;28;19929;-76
2021/12/17 13:31:35;;;;;;;;;;;;;;;7.59;74.59;102657.44;5033272;28;20407;-75
2021/12/17 13:34:01;;;;;;;;;;;;;;;7.50;74.98;102657.94;5051088;28;19925;-76
2021/12/17 13:36:26;;;;;;;;;;;;;;;7.52;75.17;102658.69;5038669;28;19925;-75
2021/12/17 13:38:56;;;;;;;;;;;;;;;7.32;75.24;102651.84;5049179;28;19920;-75
2021/12/17 13:41:31;;;;;;;;;;;;;;;7.44;75.17;102654.69;5032615;28;19932;-76
2021/12/17 13:43:57;;;;;;;;;;;;;;;7.51;75.08;102663.13;5047091;28;19920;-76
2021/12/17 13:46:22;;;;;;;;;;;;;;;7.49;74.61;102667.63;5046491;28;19921;-76
2021/12/17 13:48:48;;;;;;;;;;;;;;;7.61;75.50;102677.50;5037765;28;19921;-76
2021/12/17 13:51:13;;;;;;;;;;;;;;;7.81;74.69;102676.44;5019401;28;19925;-76
2021/12/17 13:53:39;;;;;;;;;;;;;;;7.84;74.74;102678.94;5027867;28;20404;-76
2021/12/17 13:56:04;;;;;;;;;;;;;;;7.79;74.10;102678.31;5025129;28;20374;-76
2021/12/17 13:58:30;;;;;;;;;;;;;;;7.84;74.79;102678.06;5029431;28;20374;-75
2021/12/17 14:00:57;;;;;;;;;;;;;;;7.80;73.80;102666.00;5031633;28;19921;-76
2021/12/17 14:03:23;;;;;;;;;;;;;;;7.71;74.81;102669.97;5034467;28;19924;-75
2021/12/17 14:05:58;;;;;;;;;;;;;;;7.46;75.44;102675.69;5019560;28;20365;-76
2021/12/17 14:08:23;;;;;;;;;;;;;;;7.58;75.42;102682.94;5024438;28;19929;-76
2021/12/17 14:10:50;;;;;;;;;;;;;;;7.50;75.47;102692.16;5022398;28;19918;-75
2021/12/17 14:13:17;;;;;;;;;;;;;;;7.49;75.72;102704.47;5015758;28;19921;-76
2021/12/17 14:15:43;;;;;;;;;;;;;;;7.49;75.47;102706.25;5031340;28;19933;-75
2021/12/17 14:18:09;;;;;;;;;;;;;;;7.53;74.66;102706.03;5037235;28;20015;-76
2021/12/17 14:20:37;;;;;;;;;;;;;;;7.30;75.48;102696.66;5030980;28;19921;-76
2021/12/17 14:23:11;;;;;;;;;;;;;;;7.32;75.83;102697.44;5026351;28;20392;-76
2021/12/17 14:25:41;;;;;;;;;;;;;;;6.96;76.74;102700.97;5035271;28;19970;-76
2021/12/17 14:28:14;;;;;;;;;;;;;;;7.01;76.10;102706.00;5031917;28;19995;-76
2021/12/17 14:30:41;;;;;;;;;;;;;;;7.07;76.18;102716.19;5032578;28;19928;-76
2021/12/17 14:33:08;;;;;;;;;;;;;;;6.98;76.40;102704.38;5019609;28;20298;-76
2021/12/17 14:35:42;;;;;;;;;;;;;;;6.92;76.66;102704.66;5027008;28;20117;-76
2021/12/17 14:38:08;;;;;;;;;;;;;;;6.83;76.50;102699.84;5026080;28;20381;-75
2021/12/17 14:40:48;;;;;;;;;;;;;;;6.77;76.62;102694.88;5027926;28;20004;-76
2021/12/17 14:43:32;;;;;;;;;;;;;;;6.68;77.10;102698.78;5022617;28;19932;-76
2021/12/17 14:46:09;;;;;;;;;;;;;;;6.57;77.72;102708.97;5029282;28;19940;-76
2021/12/17 14:48:46;;;;;;;;;;;;;;;6.59;77.28;102717.63;5038163;28;19975;-77
2021/12/17 15:04:46;;;;;;;;;;;;;;;6.51;78.26;102712.75;5045827;28;19921;-76
2021/12/17 15:07:11;;;;;;;;;;;;;;;6.48;78.80;102717.28;5049543;28;19928;-76
2021/12/17 15:09:40;;;;;;;;;;;;;;;6.56;78.43;102717.78;5048007;28;19974;-75
2021/12/17 15:12:37;;;;;;;;;;;;;;;6.57;78.50;102715.06;5049434;28;19928;-76
2021/12/17 15:14:52;;;;;;;;;;;;;;;6.53;78.90;102717.91;5035953;28;19967;-76
2021/12/17 15:17:17;;;;;;;;;;;;;;;6.54;78.40;102709.97;5048388;28;20269;-77
2021/12/17 15:19:42;;;;;;;;;;;;;;;6.59;78.34;102712.38;5047942;28;19925;-76
2021/12/17 15:22:08;;;;;;;;;;;;;;;6.55;78.46;102713.44;5048715;28;19928;-76
2021/12/17 15:24:36;;;;;;;;;;;;;;;6.55;78.33;102710.81;5056992;28;19924;-76
2021/12/17 15:27:01;;;;;;;;;;;;;;;6.59;78.37;102718.47;5050831;28;20440;-76
2021/12/17 15:29:27;;;;;;;;;;;;;;;6.56;78.18;102708.13;5032226;28;19921;-76
2021/12/17 15:31:53;;;;;;;;;;;;;;;6.51;78.26;102711.91;5049111;28;19974;-76
2021/12/17 15:34:18;;;;;;;;;;;;;;;6.52;78.11;102717.06;5049345;28;19921;-76
2021/12/17 15:36:43;;;;;;;;;;;;;;;6.54;78.32;102709.13;5047818;28;20187;-76
2021/12/17 15:39:09;;;;;;;;;;;;;;;6.53;78.23;102715.28;5042691;28;20003;-75
2021/12/17 15:41:39;;;;;;;;;;;;;;;6.56;78.34;102707.28;5048650;28;19925;-76
2021/12/17 15:44:04;;;;;;;;;;;;;;;6.54;77.85;102717.84;5053193;28;19932;-76
2021/12/17 15:46:29;;;;;;;;;;;;;;;6.48;77.53;102715.50;5063392;28;19921;-77
2021/12/17 15:48:54;;;;;;;;;;;;;;;6.49;77.57;102711.09;5052701;28;20018;-77
2021/12/17 15:51:20;;;;;;;;;;;;;;;6.50;77.82;102703.13;5047379;28;19924;-76
2021/12/17 15:53:45;;;;;;;;;;;;;;;6.53;77.46;102713.53;5058573;28;19921;-76
2021/12/17 15:56:10;;;;;;;;;;;;;;;6.50;77.96;102715.44;5036072;28;19925;-76
2021/12/17 15:58:35;;;;;;;;;;;;;;;6.47;77.72;102708.53;5044029;28;19924;-77